sensor_id;sensor_type;location;lat;lon;timestamp;P1;durP1;ratioP1;P2;durP2;ratioP2
19643;SDS011;9970;-36.854;174.870;2023-03-01T00:00:28;4.80;;;4.80;;
19643;SDS011;9970;-36.854;174.870;2023-03-01T00:03:00;4.77;;;4.77;;
19643;SDS011;9970;-36.854;174.870;2023-03-01T00:05:34;4.60;;;4.60;;
19643;SDS011;9970;-36.854;174.870;2023-03-01T00:08:06;4.77;;;4.77;;
19643;SDS011;9970;-36.854;174.870;2023-03-01T00:10:39;4.60;;;4.60;;
19643;SDS011;9970;-36.854;174.870;2023-03-01T00:13:13;4.90;;;4.90;;
19643;SDS011;9970;-36.854;174.870;2023-03-01T00:15:46;4.40;;;4.40;;
19643;SDS011;9970;-36.854;174.870;2023-03-01T00:18:20;4.60;;;4.60;;
19643;SDS011;9970;-36.854;174.870;2023-03-01T00:20:53;4.50;;;4.50;;
19643;SDS011;9970;-36.854;174.870;2023-03-01T00:23:26;4.60;;;4.60;;
19643;SDS011;9970;-36.854;174.870;2023-03-01T00:25:59;4.70;;;4.70;;
19643;SDS011;9970;-36.854;174.870;2023-03-01T00:28:32;4.67;;;4.67;;
19643;SDS011;9970;-36.854;174.870;2023-03-01T00:33:40;4.30;;;4.30;;
19643;SDS011;9970;-36.854;174.870;2023-03-01T00:36:13;4.40;;;4.40;;
19643;SDS011;9970;-36.854;174.870;2023-03-01T00:38:47;4.50;;;4.50;;
19643;SDS011;9970;-36.854;174.870;2023-03-01T00:41:20;4.20;;;4.20;;
19643;SDS011;9970;-36.854;174.870;2023-03-01T00:43:53;4.20;;;4.20;;
19643;SDS011;9970;-36.854;174.870;2023-03-01T00:46:26;4.30;;;4.30;;
19643;SDS011;9970;-36.854;174.870;2023-03-01T00:49:00;4.10;;;4.10;;
19643;SDS011;9970;-36.854;174.870;2023-03-01T00:51:34;4.40;;;4.40;;
19643;SDS011;9970;-36.854;174.870;2023-03-01T00:54:11;4.10;;;4.10;;
19643;SDS011;9970;-36.854;174.870;2023-03-01T00:56:40;3.90;;;3.90;;
19643;SDS011;9970;-36.854;174.870;2023-03-01T00:59:13;4.13;;;4.13;;
19643;SDS011;9970;-36.854;174.870;2023-03-01T01:01:46;4.20;;;4.20;;
19643;SDS011;9970;-36.854;174.870;2023-03-01T01:04:20;4.20;;;4.20;;
19643;SDS011;9970;-36.854;174.870;2023-03-01T01:06:53;4.20;;;4.20;;
19643;SDS011;9970;-36.854;174.870;2023-03-01T01:09:26;4.40;;;4.40;;
19643;SDS011;9970;-36.854;174.870;2023-03-01T01:11:59;4.50;;;4.50;;
19643;SDS011;9970;-36.854;174.870;2023-03-01T01:14:31;4.40;;;4.40;;
19643;SDS011;9970;-36.854;174.870;2023-03-01T01:17:05;4.30;;;4.30;;
19643;SDS011;9970;-36.854;174.870;2023-03-01T01:19:37;4.30;;;4.30;;
19643;SDS011;9970;-36.854;174.870;2023-03-01T01:22:10;4.20;;;4.20;;
19643;SDS011;9970;-36.854;174.870;2023-03-01T01:24:43;4.20;;;4.20;;
19643;SDS011;9970;-36.854;174.870;2023-03-01T01:27:16;4.13;;;4.13;;
19643;SDS011;9970;-36.854;174.870;2023-03-01T01:29:49;4.07;;;4.07;;
19643;SDS011;9970;-36.854;174.870;2023-03-01T01:32:23;4.00;;;4.00;;
19643;SDS011;9970;-36.854;174.870;2023-03-01T01:34:56;3.70;;;3.70;;
19643;SDS011;9970;-36.854;174.870;2023-03-01T01:37:29;3.70;;;3.70;;
19643;SDS011;9970;-36.854;174.870;2023-03-01T01:40:02;3.93;;;3.93;;
19643;SDS011;9970;-36.854;174.870;2023-03-01T01:42:36;3.90;;;3.90;;
19643;SDS011;9970;-36.854;174.870;2023-03-01T01:45:25;4.00;;;4.00;;
19643;SDS011;9970;-36.854;174.870;2023-03-01T01:48:10;3.90;;;3.90;;
19643;SDS011;9970;-36.854;174.870;2023-03-01T01:50:43;4.00;;;4.00;;
19643;SDS011;9970;-36.854;174.870;2023-03-01T01:53:17;3.90;;;3.90;;
19643;SDS011;9970;-36.854;174.870;2023-03-01T01:55:53;3.90;;;3.90;;
19643;SDS011;9970;-36.854;174.870;2023-03-01T01:58:27;3.90;;;3.90;;
19643;SDS011;9970;-36.854;174.870;2023-03-01T02:01:01;3.77;;;3.77;;
19643;SDS011;9970;-36.854;174.870;2023-03-01T02:03:34;3.73;;;3.73;;
19643;SDS011;9970;-36.854;174.870;2023-03-01T02:08:45;3.40;;;3.40;;
19643;SDS011;9970;-36.854;174.870;2023-03-01T02:11:19;3.50;;;3.50;;
19643;SDS011;9970;-36.854;174.870;2023-03-01T02:13:53;3.33;;;3.33;;
19643;SDS011;9970;-36.854;174.870;2023-03-01T02:16:26;3.50;;;3.50;;
19643;SDS011;9970;-36.854;174.870;2023-03-01T02:19:00;3.57;;;3.57;;
19643;SDS011;9970;-36.854;174.870;2023-03-01T02:21:37;3.40;;;3.40;;
19643;SDS011;9970;-36.854;174.870;2023-03-01T02:24:32;3.50;;;3.50;;
19643;SDS011;9970;-36.854;174.870;2023-03-01T02:27:18;3.30;;;3.30;;
19643;SDS011;9970;-36.854;174.870;2023-03-01T02:29:57;3.40;;;3.40;;
19643;SDS011;9970;-36.854;174.870;2023-03-01T02:32:30;3.50;;;3.50;;
19643;SDS011;9970;-36.854;174.870;2023-03-01T02:35:03;3.23;;;3.23;;
19643;SDS011;9970;-36.854;174.870;2023-03-01T02:37:36;3.40;;;3.40;;
19643;SDS011;9970;-36.854;174.870;2023-03-01T02:40:12;3.10;;;3.10;;
19643;SDS011;9970;-36.854;174.870;2023-03-01T02:42:50;3.30;;;3.30;;
19643;SDS011;9970;-36.854;174.870;2023-03-01T02:45:24;3.20;;;3.20;;
19643;SDS011;9970;-36.854;174.870;2023-03-01T02:47:58;3.30;;;3.30;;
19643;SDS011;9970;-36.854;174.870;2023-03-01T02:56:22;3.20;;;3.20;;
19643;SDS011;9970;-36.854;174.870;2023-03-01T02:58:55;3.50;;;3.50;;
19643;SDS011;9970;-36.854;174.870;2023-03-01T03:01:31;3.60;;;3.60;;
19643;SDS011;9970;-36.854;174.870;2023-03-01T03:04:13;3.50;;;3.50;;
19643;SDS011;9970;-36.854;174.870;2023-03-01T03:06:50;3.40;;;3.40;;
19643;SDS011;9970;-36.854;174.870;2023-03-01T03:09:23;3.60;;;3.60;;
19643;SDS011;9970;-36.854;174.870;2023-03-01T03:11:57;4.20;;;4.20;;
19643;SDS011;9970;-36.854;174.870;2023-03-01T03:14:30;3.73;;;3.73;;
19643;SDS011;9970;-36.854;174.870;2023-03-01T03:17:04;3.60;;;3.60;;
19643;SDS011;9970;-36.854;174.870;2023-03-01T03:19:37;3.70;;;3.70;;
19643;SDS011;9970;-36.854;174.870;2023-03-01T03:22:10;3.60;;;3.60;;
19643;SDS011;9970;-36.854;174.870;2023-03-01T03:24:43;3.80;;;3.80;;
19643;SDS011;9970;-36.854;174.870;2023-03-01T03:27:16;3.90;;;3.90;;
19643;SDS011;9970;-36.854;174.870;2023-03-01T03:29:49;4.20;;;4.20;;
19643;SDS011;9970;-36.854;174.870;2023-03-01T03:32:22;3.80;;;3.80;;
19643;SDS011;9970;-36.854;174.870;2023-03-01T03:34:55;3.70;;;3.70;;
19643;SDS011;9970;-36.854;174.870;2023-03-01T03:37:27;3.63;;;3.63;;
19643;SDS011;9970;-36.854;174.870;2023-03-01T03:40:18;3.70;;;3.70;;
19643;SDS011;9970;-36.854;174.870;2023-03-01T03:42:51;3.50;;;3.50;;
19643;SDS011;9970;-36.854;174.870;2023-03-01T03:45:24;3.70;;;3.70;;
19643;SDS011;9970;-36.854;174.870;2023-03-01T03:47:57;3.73;;;3.73;;
19643;SDS011;9970;-36.854;174.870;2023-03-01T03:50:30;3.50;;;3.50;;
19643;SDS011;9970;-36.854;174.870;2023-03-01T03:53:04;3.80;;;3.80;;
19643;SDS011;9970;-36.854;174.870;2023-03-01T03:55:38;3.70;;;3.70;;
19643;SDS011;9970;-36.854;174.870;2023-03-01T03:58:11;3.60;;;3.60;;
19643;SDS011;9970;-36.854;174.870;2023-03-01T04:00:44;3.30;;;3.30;;
19643;SDS011;9970;-36.854;174.870;2023-03-01T04:03:18;3.40;;;3.40;;
19643;SDS011;9970;-36.854;174.870;2023-03-01T04:05:51;3.60;;;3.60;;
19643;SDS011;9970;-36.854;174.870;2023-03-01T04:08:25;3.50;;;3.50;;
19643;SDS011;9970;-36.854;174.870;2023-03-01T04:11:02;3.50;;;3.50;;
19643;SDS011;9970;-36.854;174.870;2023-03-01T04:13:54;3.60;;;3.60;;
19643;SDS011;9970;-36.854;174.870;2023-03-01T04:16:29;3.80;;;3.80;;
19643;SDS011;9970;-36.854;174.870;2023-03-01T04:19:02;3.93;;;3.93;;
19643;SDS011;9970;-36.854;174.870;2023-03-01T04:21:35;3.60;;;3.60;;
19643;SDS011;9970;-36.854;174.870;2023-03-01T04:24:08;3.50;;;3.50;;
19643;SDS011;9970;-36.854;174.870;2023-03-01T04:26:41;3.30;;;3.30;;
19643;SDS011;9970;-36.854;174.870;2023-03-01T04:29:14;3.70;;;3.70;;
19643;SDS011;9970;-36.854;174.870;2023-03-01T04:31:47;4.00;;;4.00;;
19643;SDS011;9970;-36.854;174.870;2023-03-01T04:34:21;3.60;;;3.60;;
19643;SDS011;9970;-36.854;174.870;2023-03-01T04:36:55;3.70;;;3.70;;
19643;SDS011;9970;-36.854;174.870;2023-03-01T04:39:28;3.90;;;3.90;;
19643;SDS011;9970;-36.854;174.870;2023-03-01T04:42:02;3.43;;;3.43;;
19643;SDS011;9970;-36.854;174.870;2023-03-01T04:44:35;3.80;;;3.80;;
19643;SDS011;9970;-36.854;174.870;2023-03-01T04:47:12;3.30;;;3.30;;
19643;SDS011;9970;-36.854;174.870;2023-03-01T04:49:45;3.60;;;3.60;;
19643;SDS011;9970;-36.854;174.870;2023-03-01T04:52:18;3.60;;;3.60;;
19643;SDS011;9970;-36.854;174.870;2023-03-01T04:54:51;3.40;;;3.40;;
19643;SDS011;9970;-36.854;174.870;2023-03-01T04:57:24;3.60;;;3.60;;
19643;SDS011;9970;-36.854;174.870;2023-03-01T04:59:57;3.70;;;3.70;;
19643;SDS011;9970;-36.854;174.870;2023-03-01T05:02:30;4.10;;;4.10;;
19643;SDS011;9970;-36.854;174.870;2023-03-01T05:05:07;4.10;;;4.10;;
19643;SDS011;9970;-36.854;174.870;2023-03-01T05:07:41;4.00;;;4.00;;
19643;SDS011;9970;-36.854;174.870;2023-03-01T05:10:14;3.90;;;3.90;;
19643;SDS011;9970;-36.854;174.870;2023-03-01T05:12:47;4.10;;;4.10;;
19643;SDS011;9970;-36.854;174.870;2023-03-01T05:15:21;3.90;;;3.90;;
19643;SDS011;9970;-36.854;174.870;2023-03-01T05:17:59;3.90;;;3.90;;
19643;SDS011;9970;-36.854;174.870;2023-03-01T05:20:31;3.90;;;3.90;;
19643;SDS011;9970;-36.854;174.870;2023-03-01T05:23:05;3.50;;;3.50;;
19643;SDS011;9970;-36.854;174.870;2023-03-01T05:25:38;3.80;;;3.80;;
19643;SDS011;9970;-36.854;174.870;2023-03-01T05:28:11;4.00;;;4.00;;
19643;SDS011;9970;-36.854;174.870;2023-03-01T05:30:44;3.70;;;3.70;;
19643;SDS011;9970;-36.854;174.870;2023-03-01T05:33:18;3.60;;;3.60;;
19643;SDS011;9970;-36.854;174.870;2023-03-01T05:35:51;3.80;;;3.80;;
19643;SDS011;9970;-36.854;174.870;2023-03-01T05:38:24;4.20;;;4.20;;
19643;SDS011;9970;-36.854;174.870;2023-03-01T05:40:57;4.10;;;4.10;;
19643;SDS011;9970;-36.854;174.870;2023-03-01T05:43:31;4.20;;;4.20;;
19643;SDS011;9970;-36.854;174.870;2023-03-01T05:46:04;4.37;;;4.37;;
19643;SDS011;9970;-36.854;174.870;2023-03-01T05:48:38;4.00;;;4.00;;
19643;SDS011;9970;-36.854;174.870;2023-03-01T05:51:17;3.80;;;3.80;;
19643;SDS011;9970;-36.854;174.870;2023-03-01T05:53:51;3.50;;;3.50;;
19643;SDS011;9970;-36.854;174.870;2023-03-01T05:56:24;3.60;;;3.60;;
19643;SDS011;9970;-36.854;174.870;2023-03-01T05:58:59;3.80;;;3.80;;
19643;SDS011;9970;-36.854;174.870;2023-03-01T06:01:32;3.83;;;3.83;;
19643;SDS011;9970;-36.854;174.870;2023-03-01T06:04:05;3.80;;;3.80;;
19643;SDS011;9970;-36.854;174.870;2023-03-01T06:06:39;4.00;;;4.00;;
19643;SDS011;9970;-36.854;174.870;2023-03-01T06:09:11;4.40;;;4.40;;
19643;SDS011;9970;-36.854;174.870;2023-03-01T06:11:45;4.40;;;4.40;;
19643;SDS011;9970;-36.854;174.870;2023-03-01T06:14:18;4.40;;;4.40;;
19643;SDS011;9970;-36.854;174.870;2023-03-01T06:16:51;4.70;;;4.70;;
19643;SDS011;9970;-36.854;174.870;2023-03-01T06:19:24;4.80;;;4.80;;
19643;SDS011;9970;-36.854;174.870;2023-03-01T06:21:57;4.60;;;4.60;;
19643;SDS011;9970;-36.854;174.870;2023-03-01T06:24:30;3.90;;;3.90;;
19643;SDS011;9970;-36.854;174.870;2023-03-01T06:27:03;3.80;;;3.80;;
19643;SDS011;9970;-36.854;174.870;2023-03-01T06:29:36;3.80;;;3.80;;
19643;SDS011;9970;-36.854;174.870;2023-03-01T06:32:09;3.80;;;3.80;;
19643;SDS011;9970;-36.854;174.870;2023-03-01T06:34:42;4.10;;;4.10;;
19643;SDS011;9970;-36.854;174.870;2023-03-01T06:37:15;3.90;;;3.90;;
19643;SDS011;9970;-36.854;174.870;2023-03-01T06:39:48;4.10;;;4.10;;
19643;SDS011;9970;-36.854;174.870;2023-03-01T06:42:22;4.20;;;4.20;;
19643;SDS011;9970;-36.854;174.870;2023-03-01T06:44:55;4.20;;;4.20;;
19643;SDS011;9970;-36.854;174.870;2023-03-01T06:47:28;4.20;;;4.20;;
19643;SDS011;9970;-36.854;174.870;2023-03-01T06:50:03;4.20;;;4.20;;
19643;SDS011;9970;-36.854;174.870;2023-03-01T06:52:37;4.20;;;4.20;;
19643;SDS011;9970;-36.854;174.870;2023-03-01T06:55:10;4.10;;;4.10;;
19643;SDS011;9970;-36.854;174.870;2023-03-01T06:57:43;4.20;;;4.20;;
19643;SDS011;9970;-36.854;174.870;2023-03-01T07:00:17;4.70;;;4.70;;
19643;SDS011;9970;-36.854;174.870;2023-03-01T07:02:51;5.20;;;5.20;;
19643;SDS011;9970;-36.854;174.870;2023-03-01T07:05:24;5.10;;;5.10;;
19643;SDS011;9970;-36.854;174.870;2023-03-01T07:07:57;4.90;;;4.90;;
19643;SDS011;9970;-36.854;174.870;2023-03-01T07:10:30;4.90;;;4.90;;
19643;SDS011;9970;-36.854;174.870;2023-03-01T07:13:03;5.17;;;5.17;;
19643;SDS011;9970;-36.854;174.870;2023-03-01T07:15:37;4.80;;;4.80;;
19643;SDS011;9970;-36.854;174.870;2023-03-01T07:18:11;4.70;;;4.70;;
19643;SDS011;9970;-36.854;174.870;2023-03-01T07:20:44;5.03;;;5.03;;
19643;SDS011;9970;-36.854;174.870;2023-03-01T07:23:17;4.80;;;4.80;;
19643;SDS011;9970;-36.854;174.870;2023-03-01T07:25:53;4.80;;;4.80;;
19643;SDS011;9970;-36.854;174.870;2023-03-01T07:28:27;4.67;;;4.67;;
19643;SDS011;9970;-36.854;174.870;2023-03-01T07:31:03;5.10;;;5.10;;
19643;SDS011;9970;-36.854;174.870;2023-03-01T07:33:37;4.80;;;4.80;;
19643;SDS011;9970;-36.854;174.870;2023-03-01T07:36:10;4.90;;;4.90;;
19643;SDS011;9970;-36.854;174.870;2023-03-01T07:38:43;4.70;;;4.70;;
19643;SDS011;9970;-36.854;174.870;2023-03-01T07:41:17;4.60;;;4.60;;
19643;SDS011;9970;-36.854;174.870;2023-03-01T07:43:50;5.40;;;5.40;;
19643;SDS011;9970;-36.854;174.870;2023-03-01T07:46:23;6.73;;;6.73;;
19643;SDS011;9970;-36.854;174.870;2023-03-01T07:48:56;5.90;;;5.90;;
19643;SDS011;9970;-36.854;174.870;2023-03-01T07:51:29;10.63;;;10.53;;
19643;SDS011;9970;-36.854;174.870;2023-03-01T07:54:02;4.80;;;4.80;;
19643;SDS011;9970;-36.854;174.870;2023-03-01T07:56:35;5.00;;;5.00;;
19643;SDS011;9970;-36.854;174.870;2023-03-01T07:59:08;5.10;;;5.10;;
19643;SDS011;9970;-36.854;174.870;2023-03-01T08:01:41;5.03;;;5.03;;
19643;SDS011;9970;-36.854;174.870;2023-03-01T08:04:13;5.00;;;5.00;;
19643;SDS011;9970;-36.854;174.870;2023-03-01T08:06:46;4.90;;;4.90;;
19643;SDS011;9970;-36.854;174.870;2023-03-01T08:09:20;4.67;;;4.67;;
19643;SDS011;9970;-36.854;174.870;2023-03-01T08:11:53;4.80;;;4.80;;
19643;SDS011;9970;-36.854;174.870;2023-03-01T08:14:28;4.70;;;4.70;;
19643;SDS011;9970;-36.854;174.870;2023-03-01T08:17:01;4.80;;;4.80;;
19643;SDS011;9970;-36.854;174.870;2023-03-01T08:19:35;4.70;;;4.70;;
19643;SDS011;9970;-36.854;174.870;2023-03-01T08:22:08;5.00;;;5.00;;
19643;SDS011;9970;-36.854;174.870;2023-03-01T08:24:43;4.70;;;4.70;;
19643;SDS011;9970;-36.854;174.870;2023-03-01T08:27:17;4.70;;;4.70;;
19643;SDS011;9970;-36.854;174.870;2023-03-01T08:29:52;5.50;;;5.50;;
19643;SDS011;9970;-36.854;174.870;2023-03-01T08:32:32;5.50;;;5.50;;
19643;SDS011;9970;-36.854;174.870;2023-03-01T08:35:06;5.60;;;5.60;;
19643;SDS011;9970;-36.854;174.870;2023-03-01T08:37:41;5.40;;;5.40;;
19643;SDS011;9970;-36.854;174.870;2023-03-01T08:40:14;5.40;;;5.40;;
19643;SDS011;9970;-36.854;174.870;2023-03-01T08:42:49;5.20;;;5.20;;
19643;SDS011;9970;-36.854;174.870;2023-03-01T08:45:23;4.80;;;4.80;;
19643;SDS011;9970;-36.854;174.870;2023-03-01T08:47:59;5.10;;;5.10;;
19643;SDS011;9970;-36.854;174.870;2023-03-01T08:50:32;5.40;;;5.40;;
19643;SDS011;9970;-36.854;174.870;2023-03-01T08:53:06;5.00;;;5.00;;
19643;SDS011;9970;-36.854;174.870;2023-03-01T08:55:39;5.20;;;5.20;;
19643;SDS011;9970;-36.854;174.870;2023-03-01T08:58:13;4.80;;;4.80;;
19643;SDS011;9970;-36.854;174.870;2023-03-01T09:00:47;5.10;;;5.10;;
19643;SDS011;9970;-36.854;174.870;2023-03-01T09:03:20;4.80;;;4.80;;
19643;SDS011;9970;-36.854;174.870;2023-03-01T09:05:53;5.00;;;5.00;;
19643;SDS011;9970;-36.854;174.870;2023-03-01T09:08:29;4.90;;;4.90;;
19643;SDS011;9970;-36.854;174.870;2023-03-01T09:11:02;5.00;;;5.00;;
19643;SDS011;9970;-36.854;174.870;2023-03-01T09:13:36;5.07;;;5.07;;
19643;SDS011;9970;-36.854;174.870;2023-03-01T09:16:11;4.90;;;4.90;;
19643;SDS011;9970;-36.854;174.870;2023-03-01T09:18:51;4.83;;;4.83;;
19643;SDS011;9970;-36.854;174.870;2023-03-01T09:21:25;5.00;;;5.00;;
19643;SDS011;9970;-36.854;174.870;2023-03-01T09:23:59;5.10;;;5.10;;
19643;SDS011;9970;-36.854;174.870;2023-03-01T09:26:32;4.80;;;4.80;;
19643;SDS011;9970;-36.854;174.870;2023-03-01T09:29:04;4.80;;;4.80;;
19643;SDS011;9970;-36.854;174.870;2023-03-01T09:31:38;5.23;;;5.23;;
19643;SDS011;9970;-36.854;174.870;2023-03-01T09:34:11;5.40;;;5.40;;
19643;SDS011;9970;-36.854;174.870;2023-03-01T09:36:46;4.90;;;4.90;;
19643;SDS011;9970;-36.854;174.870;2023-03-01T09:39:19;4.90;;;4.90;;
19643;SDS011;9970;-36.854;174.870;2023-03-01T09:41:57;4.80;;;4.80;;
19643;SDS011;9970;-36.854;174.870;2023-03-01T09:47:25;4.80;;;4.80;;
19643;SDS011;9970;-36.854;174.870;2023-03-01T09:52:48;4.90;;;4.90;;
19643;SDS011;9970;-36.854;174.870;2023-03-01T09:55:36;5.10;;;5.10;;
19643;SDS011;9970;-36.854;174.870;2023-03-01T10:01:23;5.70;;;5.70;;
19643;SDS011;9970;-36.854;174.870;2023-03-01T10:04:36;5.30;;;5.30;;
19643;SDS011;9970;-36.854;174.870;2023-03-01T10:06:32;5.60;;;5.60;;
19643;SDS011;9970;-36.854;174.870;2023-03-01T10:09:07;5.60;;;5.60;;
19643;SDS011;9970;-36.854;174.870;2023-03-01T10:11:48;5.70;;;5.70;;
19643;SDS011;9970;-36.854;174.870;2023-03-01T10:14:33;6.27;;;6.27;;
19643;SDS011;9970;-36.854;174.870;2023-03-01T10:17:16;5.40;;;5.40;;
19643;SDS011;9970;-36.854;174.870;2023-03-01T10:19:50;6.10;;;6.10;;
19643;SDS011;9970;-36.854;174.870;2023-03-01T10:22:29;5.57;;;5.57;;
19643;SDS011;9970;-36.854;174.870;2023-03-01T10:25:04;5.37;;;5.37;;
19643;SDS011;9970;-36.854;174.870;2023-03-01T10:27:42;5.40;;;5.40;;
19643;SDS011;9970;-36.854;174.870;2023-03-01T10:33:13;5.20;;;5.20;;
19643;SDS011;9970;-36.854;174.870;2023-03-01T10:35:38;5.50;;;5.50;;
19643;SDS011;9970;-36.854;174.870;2023-03-01T10:38:12;5.40;;;5.40;;
19643;SDS011;9970;-36.854;174.870;2023-03-01T10:40:56;5.20;;;5.20;;
19643;SDS011;9970;-36.854;174.870;2023-03-01T10:43:26;5.40;;;5.40;;
19643;SDS011;9970;-36.854;174.870;2023-03-01T10:49:12;5.73;;;5.73;;
19643;SDS011;9970;-36.854;174.870;2023-03-01T10:51:52;5.50;;;5.50;;
19643;SDS011;9970;-36.854;174.870;2023-03-01T10:54:32;5.80;;;5.80;;
19643;SDS011;9970;-36.854;174.870;2023-03-01T10:57:05;5.70;;;5.70;;
19643;SDS011;9970;-36.854;174.870;2023-03-01T10:59:39;5.23;;;5.23;;
19643;SDS011;9970;-36.854;174.870;2023-03-01T11:02:16;5.47;;;5.47;;
19643;SDS011;9970;-36.854;174.870;2023-03-01T11:07:47;5.67;;;5.67;;
19643;SDS011;9970;-36.854;174.870;2023-03-01T11:10:29;5.30;;;5.30;;
19643;SDS011;9970;-36.854;174.870;2023-03-01T11:13:25;5.30;;;5.30;;
19643;SDS011;9970;-36.854;174.870;2023-03-01T11:16:03;5.30;;;5.30;;
19643;SDS011;9970;-36.854;174.870;2023-03-01T11:18:37;5.27;;;5.27;;
19643;SDS011;9970;-36.854;174.870;2023-03-01T11:21:12;5.40;;;5.40;;
19643;SDS011;9970;-36.854;174.870;2023-03-01T11:23:46;5.60;;;5.60;;
19643;SDS011;9970;-36.854;174.870;2023-03-01T11:26:19;5.80;;;5.80;;
19643;SDS011;9970;-36.854;174.870;2023-03-01T11:28:53;5.30;;;5.30;;
19643;SDS011;9970;-36.854;174.870;2023-03-01T11:31:27;5.30;;;5.30;;
19643;SDS011;9970;-36.854;174.870;2023-03-01T11:36:44;5.30;;;5.30;;
19643;SDS011;9970;-36.854;174.870;2023-03-01T11:39:30;5.20;;;5.20;;
19643;SDS011;9970;-36.854;174.870;2023-03-01T11:42:05;5.40;;;5.40;;
19643;SDS011;9970;-36.854;174.870;2023-03-01T11:44:38;5.37;;;5.37;;
19643;SDS011;9970;-36.854;174.870;2023-03-01T11:50:00;5.93;;;5.93;;
19643;SDS011;9970;-36.854;174.870;2023-03-01T11:53:02;5.37;;;5.37;;
19643;SDS011;9970;-36.854;174.870;2023-03-01T12:01:25;5.70;;;5.70;;
19643;SDS011;9970;-36.854;174.870;2023-03-01T12:04:11;5.50;;;5.50;;
19643;SDS011;9970;-36.854;174.870;2023-03-01T12:07:03;5.90;;;5.90;;
19643;SDS011;9970;-36.854;174.870;2023-03-01T12:09:36;5.70;;;5.70;;
19643;SDS011;9970;-36.854;174.870;2023-03-01T12:12:26;5.60;;;5.60;;
19643;SDS011;9970;-36.854;174.870;2023-03-01T12:21:02;5.50;;;5.50;;
19643;SDS011;9970;-36.854;174.870;2023-03-01T12:23:46;5.57;;;5.57;;
19643;SDS011;9970;-36.854;174.870;2023-03-01T12:26:25;5.60;;;5.60;;
19643;SDS011;9970;-36.854;174.870;2023-03-01T12:32:03;5.70;;;5.70;;
19643;SDS011;9970;-36.854;174.870;2023-03-01T12:34:52;6.00;;;6.00;;
19643;SDS011;9970;-36.854;174.870;2023-03-01T12:51:55;5.30;;;5.30;;
19643;SDS011;9970;-36.854;174.870;2023-03-01T12:54:31;5.50;;;5.50;;
19643;SDS011;9970;-36.854;174.870;2023-03-01T12:57:12;5.60;;;5.60;;
19643;SDS011;9970;-36.854;174.870;2023-03-01T12:59:51;6.00;;;6.00;;
19643;SDS011;9970;-36.854;174.870;2023-03-01T13:08:08;5.77;;;5.77;;
19643;SDS011;9970;-36.854;174.870;2023-03-01T13:10:50;5.70;;;5.70;;
19643;SDS011;9970;-36.854;174.870;2023-03-01T13:13:34;5.67;;;5.67;;
19643;SDS011;9970;-36.854;174.870;2023-03-01T13:16:38;5.70;;;5.70;;
19643;SDS011;9970;-36.854;174.870;2023-03-01T13:21:49;5.90;;;5.90;;
19643;SDS011;9970;-36.854;174.870;2023-03-01T13:24:35;5.70;;;5.70;;
19643;SDS011;9970;-36.854;174.870;2023-03-01T13:32:24;6.37;;;6.37;;
19643;SDS011;9970;-36.854;174.870;2023-03-01T13:34:54;5.60;;;5.60;;
19643;SDS011;9970;-36.854;174.870;2023-03-01T13:37:32;5.50;;;5.50;;
19643;SDS011;9970;-36.854;174.870;2023-03-01T13:42:53;5.23;;;5.23;;
19643;SDS011;9970;-36.854;174.870;2023-03-01T13:45:41;5.90;;;5.90;;
19643;SDS011;9970;-36.854;174.870;2023-03-01T13:48:15;5.47;;;5.47;;
19643;SDS011;9970;-36.854;174.870;2023-03-01T13:50:59;5.20;;;5.20;;
19643;SDS011;9970;-36.854;174.870;2023-03-01T13:53:35;5.40;;;5.40;;
19643;SDS011;9970;-36.854;174.870;2023-03-01T13:56:16;4.80;;;4.80;;
19643;SDS011;9970;-36.854;174.870;2023-03-01T14:01:27;5.00;;;5.00;;
19643;SDS011;9970;-36.854;174.870;2023-03-01T14:04:02;4.90;;;4.90;;
19643;SDS011;9970;-36.854;174.870;2023-03-01T14:06:36;5.00;;;5.00;;
19643;SDS011;9970;-36.854;174.870;2023-03-01T14:09:15;5.10;;;5.10;;
19643;SDS011;9970;-36.854;174.870;2023-03-01T14:12:06;4.87;;;4.87;;
19643;SDS011;9970;-36.854;174.870;2023-03-01T14:14:52;5.00;;;5.00;;
19643;SDS011;9970;-36.854;174.870;2023-03-01T14:20:21;5.03;;;5.03;;
19643;SDS011;9970;-36.854;174.870;2023-03-01T14:22:58;5.00;;;5.00;;
19643;SDS011;9970;-36.854;174.870;2023-03-01T14:25:32;5.10;;;5.10;;
19643;SDS011;9970;-36.854;174.870;2023-03-01T14:28:17;5.10;;;5.10;;
19643;SDS011;9970;-36.854;174.870;2023-03-01T14:30:47;5.00;;;5.00;;
19643;SDS011;9970;-36.854;174.870;2023-03-01T14:36:00;5.00;;;5.00;;
19643;SDS011;9970;-36.854;174.870;2023-03-01T14:38:44;4.80;;;4.80;;
19643;SDS011;9970;-36.854;174.870;2023-03-01T14:41:15;5.00;;;5.00;;
19643;SDS011;9970;-36.854;174.870;2023-03-01T14:46:33;4.90;;;4.90;;
19643;SDS011;9970;-36.854;174.870;2023-03-01T14:51:51;5.00;;;5.00;;
19643;SDS011;9970;-36.854;174.870;2023-03-01T14:54:41;5.00;;;5.00;;
19643;SDS011;9970;-36.854;174.870;2023-03-01T14:57:18;5.00;;;5.00;;
19643;SDS011;9970;-36.854;174.870;2023-03-01T14:59:55;5.00;;;5.00;;
19643;SDS011;9970;-36.854;174.870;2023-03-01T15:02:34;5.10;;;5.10;;
19643;SDS011;9970;-36.854;174.870;2023-03-01T15:05:09;5.10;;;5.10;;
19643;SDS011;9970;-36.854;174.870;2023-03-01T15:07:43;5.00;;;5.00;;
19643;SDS011;9970;-36.854;174.870;2023-03-01T15:10:19;5.13;;;5.13;;
19643;SDS011;9970;-36.854;174.870;2023-03-01T15:13:14;4.80;;;4.80;;
19643;SDS011;9970;-36.854;174.870;2023-03-01T15:16:00;4.90;;;4.90;;
19643;SDS011;9970;-36.854;174.870;2023-03-01T15:18:29;4.90;;;4.90;;
19643;SDS011;9970;-36.854;174.870;2023-03-01T15:21:13;4.80;;;4.80;;
19643;SDS011;9970;-36.854;174.870;2023-03-01T15:24:07;4.90;;;4.90;;
19643;SDS011;9970;-36.854;174.870;2023-03-01T15:27:14;5.00;;;5.00;;
19643;SDS011;9970;-36.854;174.870;2023-03-01T15:29:25;5.00;;;5.00;;
19643;SDS011;9970;-36.854;174.870;2023-03-01T15:32:06;4.90;;;4.90;;
19643;SDS011;9970;-36.854;174.870;2023-03-01T15:34:56;4.70;;;4.70;;
19643;SDS011;9970;-36.854;174.870;2023-03-01T15:37:40;4.70;;;4.70;;
19643;SDS011;9970;-36.854;174.870;2023-03-01T15:40:23;4.40;;;4.40;;
19643;SDS011;9970;-36.854;174.870;2023-03-01T15:43:04;5.20;;;5.20;;
19643;SDS011;9970;-36.854;174.870;2023-03-01T15:45:40;4.20;;;4.20;;
19643;SDS011;9970;-36.854;174.870;2023-03-01T15:48:17;4.47;;;4.47;;
19643;SDS011;9970;-36.854;174.870;2023-03-01T15:50:56;4.80;;;4.80;;
19643;SDS011;9970;-36.854;174.870;2023-03-01T15:53:30;4.80;;;4.80;;
19643;SDS011;9970;-36.854;174.870;2023-03-01T15:56:05;5.20;;;5.20;;
19643;SDS011;9970;-36.854;174.870;2023-03-01T15:58:39;4.90;;;4.90;;
19643;SDS011;9970;-36.854;174.870;2023-03-01T16:01:15;4.50;;;4.50;;
19643;SDS011;9970;-36.854;174.870;2023-03-01T16:03:48;4.40;;;4.40;;
19643;SDS011;9970;-36.854;174.870;2023-03-01T16:06:21;4.50;;;4.50;;
19643;SDS011;9970;-36.854;174.870;2023-03-01T16:08:54;4.60;;;4.60;;
19643;SDS011;9970;-36.854;174.870;2023-03-01T16:11:27;4.33;;;4.33;;
19643;SDS011;9970;-36.854;174.870;2023-03-01T16:14:02;4.40;;;4.40;;
19643;SDS011;9970;-36.854;174.870;2023-03-01T16:16:35;4.50;;;4.50;;
19643;SDS011;9970;-36.854;174.870;2023-03-01T16:19:08;4.40;;;4.40;;
19643;SDS011;9970;-36.854;174.870;2023-03-01T16:21:44;4.33;;;4.33;;
19643;SDS011;9970;-36.854;174.870;2023-03-01T16:24:19;4.30;;;4.30;;
19643;SDS011;9970;-36.854;174.870;2023-03-01T16:26:52;4.50;;;4.50;;
19643;SDS011;9970;-36.854;174.870;2023-03-01T16:29:25;5.30;;;5.30;;
19643;SDS011;9970;-36.854;174.870;2023-03-01T16:32:02;5.10;;;5.10;;
19643;SDS011;9970;-36.854;174.870;2023-03-01T16:34:35;4.30;;;4.30;;
19643;SDS011;9970;-36.854;174.870;2023-03-01T16:37:13;4.40;;;4.40;;
19643;SDS011;9970;-36.854;174.870;2023-03-01T16:39:46;4.40;;;4.40;;
19643;SDS011;9970;-36.854;174.870;2023-03-01T16:42:20;4.33;;;4.33;;